Alma, Missouri
Current Conditions -  °F | °C
As of 1:58 AM on Thursday 18 Dec 2014 (Local Time) from KSZL Reporting Station
Light Snow Light Snow  
Wind Chill: 23°   Ceiling: 1700
Heat Index: 29°   Visibility: 2.5mi
Dew Point: 28°   Wind: 6mph
Humidity: 93%   Direction: 70°ENE
Pressure: 30.23"   Gusts: NA
Location:  39.1°N, 93.55°W
Report Text: KSZL 180758Z 07005KT 2 1/2SM R01/5500FT -SN BR FEW003 OVC017 M01/M02 A3023 RMK AO2A SLP249 P0000 T10151025 $
Loading
Personal Weather Stations






























Interactive Weather Map New forecast layout! Learn more

10-Day Weather Forecast

Advertisements
Track Severe Weather on mobile